createdAt,value
2018-08-22T00:00:46.394Z,64.80
2018-08-22T00:03:14.690Z,64.60
2018-08-22T00:05:43.033Z,64.80
2018-08-22T00:08:11.310Z,64.60
2018-08-22T00:10:39.711Z,64.60
2018-08-22T00:13:07.986Z,64.80
2018-08-22T00:15:36.259Z,64.50
2018-08-22T00:18:04.550Z,64.50
2018-08-22T00:20:32.811Z,64.70
2018-08-22T00:23:01.080Z,64.40
2018-08-22T00:25:29.385Z,64.60
2018-08-22T00:27:57.612Z,64.60
2018-08-22T00:30:25.899Z,64.60
2018-08-22T00:32:54.190Z,64.60
2018-08-22T00:35:22.546Z,64.60
2018-08-22T00:37:50.811Z,64.50
2018-08-22T00:40:19.067Z,64.40
2018-08-22T00:42:47.371Z,64.50
2018-08-22T00:45:15.626Z,64.20
2018-08-22T00:47:44.089Z,64.50
2018-08-22T00:50:12.346Z,64.40
2018-08-22T00:52:40.606Z,64.40
2018-08-22T00:55:08.861Z,64.50
2018-08-22T00:57:37.165Z,64.50
2018-08-22T01:00:05.471Z,64.30
2018-08-22T01:02:33.742Z,64.50
2018-08-22T01:05:02.012Z,64.60
2018-08-22T01:07:30.282Z,64.40
2018-08-22T01:09:58.690Z,64.30
2018-08-22T01:12:27.015Z,64.50
2018-08-22T01:14:55.267Z,64.40
2018-08-22T01:17:23.519Z,64.40
2018-08-22T01:19:51.798Z,64.00
2018-08-22T01:22:20.106Z,64.10
2018-08-22T01:24:48.374Z,64.30
2018-08-22T01:27:22.134Z,64.40
2018-08-22T01:29:52.382Z,64.30
2018-08-22T01:32:21.026Z,64.30
2018-08-22T01:34:49.751Z,64.40
2018-08-22T01:37:18.033Z,64.40
2018-08-22T01:39:48.704Z,64.40
2018-08-22T01:42:17.943Z,64.40
2018-08-22T01:44:46.627Z,64.30
2018-08-22T01:47:14.989Z,64.40
2018-08-22T01:49:43.440Z,64.30
2018-08-22T01:52:11.694Z,65.10
2018-08-22T01:54:39.948Z,64.30
2018-08-22T01:57:08.220Z,64.30
2018-08-22T01:59:36.558Z,64.30
2018-08-22T02:02:04.990Z,64.10
2018-08-22T02:04:33.266Z,64.30
2018-08-22T02:07:01.531Z,64.40
2018-08-22T02:09:29.781Z,64.50
2018-08-22T02:11:58.098Z,64.40
2018-08-22T02:14:26.410Z,64.80
2018-08-22T02:16:54.694Z,64.60
2018-08-22T02:19:22.962Z,64.50
2018-08-22T02:21:51.230Z,64.30
2018-08-22T02:24:19.506Z,64.40
2018-08-22T02:26:47.795Z,64.80
2018-08-22T02:29:16.090Z,63.90
2018-08-22T02:31:44.354Z,64.50
2018-08-22T02:34:12.652Z,64.50
2018-08-22T02:36:40.907Z,64.50
2018-08-22T02:39:09.726Z,64.40
2018-08-22T02:41:38.024Z,64.80
2018-08-22T02:44:06.308Z,65.00
2018-08-22T02:46:34.554Z,64.80
2018-08-22T02:49:02.845Z,64.70
2018-08-22T02:51:31.116Z,64.70
2018-08-22T02:53:59.375Z,64.70
2018-08-22T02:56:27.654Z,64.70
2018-08-22T02:58:55.939Z,64.50
2018-08-22T03:01:24.223Z,64.20
2018-08-22T03:03:52.523Z,64.50
2018-08-22T03:06:22.503Z,65.00
2018-08-22T03:08:50.772Z,64.20
2018-08-22T03:11:19.037Z,64.30
2018-08-22T03:13:47.313Z,64.30
2018-08-22T03:16:15.598Z,64.20
2018-08-22T03:18:43.887Z,64.10
2018-08-22T03:21:12.158Z,64.10
2018-08-22T03:23:40.547Z,64.20
2018-08-22T03:26:08.862Z,64.20
2018-08-22T03:28:37.165Z,64.20
2018-08-22T03:31:05.431Z,64.20
2018-08-22T03:33:33.715Z,64.20
2018-08-22T03:36:01.991Z,64.10
2018-08-22T03:38:30.274Z,64.50
2018-08-22T03:40:58.543Z,64.10
2018-08-22T03:43:26.812Z,64.10
2018-08-22T03:45:55.091Z,64.00
2018-08-22T03:48:23.358Z,64.10
2018-08-22T03:50:51.630Z,64.10
2018-08-22T03:53:19.906Z,64.10
2018-08-22T03:55:48.186Z,64.10
2018-08-22T03:58:16.443Z,64.10
2018-08-22T04:00:44.723Z,64.10
2018-08-22T04:03:12.971Z,64.10
2018-08-22T04:05:41.263Z,64.10
2018-08-22T04:08:09.519Z,64.00
2018-08-22T04:10:37.803Z,64.10
2018-08-22T04:13:06.102Z,64.10
2018-08-22T04:15:34.514Z,64.10
2018-08-22T04:18:02.878Z,64.10
2018-08-22T04:20:31.163Z,64.10
2018-08-22T04:22:59.499Z,64.10
2018-08-22T04:25:27.836Z,64.20
2018-08-22T04:27:56.129Z,64.30
2018-08-22T04:30:24.397Z,64.10
2018-08-22T04:32:52.686Z,64.10
2018-08-22T04:35:20.989Z,64.10
2018-08-22T04:37:49.314Z,64.10
2018-08-22T04:40:17.631Z,64.20
2018-08-22T04:42:46.010Z,64.10
2018-08-22T04:45:14.314Z,64.10
2018-08-22T04:47:42.648Z,64.00
2018-08-22T04:50:10.971Z,64.00
2018-08-22T04:52:39.255Z,64.00
2018-08-22T04:55:07.684Z,64.00
2018-08-22T04:57:36.126Z,64.00
2018-08-22T05:00:05.187Z,64.00
2018-08-22T05:02:33.472Z,64.00
2018-08-22T05:05:02.166Z,63.90
2018-08-22T05:07:30.523Z,64.00
2018-08-22T05:09:58.831Z,64.10
2018-08-22T05:12:27.131Z,64.00
2018-08-22T05:14:55.512Z,64.00
2018-08-22T05:17:23.862Z,64.70
2018-08-22T05:19:52.186Z,63.90
2018-08-22T05:22:20.495Z,64.50
2018-08-22T05:24:48.867Z,63.90
2018-08-22T05:27:17.161Z,64.00
2018-08-22T05:29:45.439Z,64.00
2018-08-22T05:32:13.734Z,64.00
2018-08-22T05:34:42.111Z,64.00
2018-08-22T05:37:10.560Z,64.00
2018-08-22T05:39:38.896Z,64.00
2018-08-22T05:42:07.323Z,64.00
2018-08-22T05:44:35.755Z,64.10
2018-08-22T05:47:04.142Z,64.10
2018-08-22T05:49:32.444Z,64.20
2018-08-22T05:52:00.736Z,64.10
2018-08-22T05:54:29.140Z,64.30
2018-08-22T05:56:57.479Z,64.30
2018-08-22T05:59:25.792Z,64.30
2018-08-22T06:01:54.150Z,64.30
2018-08-22T06:04:22.478Z,64.20
2018-08-22T06:06:50.775Z,64.20
2018-08-22T06:09:19.137Z,64.30
2018-08-22T06:11:47.532Z,64.40
2018-08-22T06:14:15.839Z,64.40
2018-08-22T06:16:44.154Z,64.30
2018-08-22T06:19:12.446Z,64.40
2018-08-22T06:21:40.858Z,64.50
2018-08-22T06:24:09.163Z,64.50
2018-08-22T06:26:37.550Z,64.40
2018-08-22T06:29:05.857Z,64.50
2018-08-22T06:31:34.088Z,64.50
2018-08-22T06:34:02.371Z,64.70
2018-08-22T06:36:30.636Z,64.60
2018-08-22T06:38:58.969Z,65.40
2018-08-22T06:41:27.258Z,64.60
2018-08-22T06:43:55.542Z,64.60
2018-08-22T06:46:23.798Z,64.60
2018-08-22T06:48:52.068Z,64.60
2018-08-22T06:51:20.360Z,64.60
2018-08-22T06:53:48.626Z,64.60
2018-08-22T06:56:16.891Z,64.50
2018-08-22T06:58:45.143Z,64.60
2018-08-22T07:01:13.415Z,64.50
2018-08-22T07:03:41.686Z,64.80
2018-08-22T07:06:09.954Z,64.10
2018-08-22T07:08:38.217Z,64.60
2018-08-22T07:11:06.496Z,64.60
2018-08-22T07:13:34.780Z,64.60
2018-08-22T07:16:03.025Z,64.60
2018-08-22T07:18:31.306Z,64.60
2018-08-22T07:20:59.660Z,64.60
2018-08-22T07:23:27.916Z,64.60
2018-08-22T07:25:56.174Z,64.60
2018-08-22T07:28:24.431Z,64.60
2018-08-22T07:30:52.749Z,64.50
2018-08-22T07:33:21.033Z,64.60
2018-08-22T07:35:49.369Z,64.50
2018-08-22T07:38:17.626Z,64.50
2018-08-22T07:40:45.874Z,64.50
2018-08-22T07:43:14.192Z,64.40
2018-08-22T07:45:42.455Z,64.40
2018-08-22T07:48:10.741Z,64.40
2018-08-22T07:50:38.995Z,64.30
2018-08-22T07:53:07.293Z,65.20
2018-08-22T07:55:36.759Z,64.30
2018-08-22T07:58:05.118Z,64.30
2018-08-22T08:00:33.518Z,64.30
2018-08-22T08:03:01.924Z,64.20
2018-08-22T08:05:30.180Z,64.10
2018-08-22T08:07:58.634Z,64.10
2018-08-22T08:10:33.362Z,64.10
2018-08-22T08:13:02.134Z,64.00
2018-08-22T08:15:30.551Z,64.00
2018-08-22T08:17:59.052Z,63.80
2018-08-22T08:20:27.387Z,63.90
2018-08-22T08:22:55.660Z,63.90
2018-08-22T08:25:23.925Z,63.90
2018-08-22T08:27:52.223Z,63.80
2018-08-22T08:30:20.535Z,63.80
2018-08-22T08:32:48.799Z,63.80
2018-08-22T08:35:17.074Z,63.80
2018-08-22T08:37:45.364Z,63.80
2018-08-22T08:40:13.671Z,63.70
2018-08-22T08:42:41.928Z,63.60
2018-08-22T08:45:11.291Z,63.60
2018-08-22T08:47:39.681Z,63.60
2018-08-22T08:50:07.966Z,63.60
2018-08-22T08:52:36.425Z,63.50
2018-08-22T08:55:04.724Z,63.60
2018-08-22T08:57:33.116Z,64.30
2018-08-22T09:00:01.648Z,63.50
2018-08-22T09:02:30.007Z,63.30
2018-08-22T09:04:58.538Z,63.50
2018-08-22T09:07:26.893Z,63.30
2018-08-22T09:09:55.294Z,63.80
2018-08-22T09:12:24.295Z,63.10
2018-08-22T09:14:52.502Z,63.10
2018-08-22T09:17:21.385Z,63.20
2018-08-22T09:19:49.734Z,63.20
2018-08-22T09:22:18.031Z,63.10
2018-08-22T09:24:46.358Z,62.60
2018-08-22T09:27:14.698Z,62.60
2018-08-22T09:29:43.042Z,62.50
2018-08-22T09:32:11.298Z,62.30
2018-08-22T09:34:39.593Z,62.30
2018-08-22T09:37:08.010Z,62.10
2018-08-22T09:39:36.320Z,62.00
2018-08-22T09:42:04.589Z,62.80
2018-08-22T09:44:32.917Z,62.20
2018-08-22T09:47:01.238Z,62.30
2018-08-22T09:49:29.525Z,62.30
2018-08-22T09:51:57.828Z,62.20
2018-08-22T09:54:26.114Z,62.20
2018-08-22T09:56:54.460Z,62.10
2018-08-22T09:59:22.748Z,62.20
2018-08-22T10:01:51.030Z,62.10
2018-08-22T10:04:19.385Z,62.00
2018-08-22T10:06:49.094Z,61.60
2018-08-22T10:09:20.961Z,61.60
2018-08-22T10:11:49.275Z,61.00
2018-08-22T10:14:17.636Z,61.00
2018-08-22T10:16:45.948Z,60.80
2018-08-22T10:19:14.369Z,60.70
2018-08-22T10:21:43.323Z,60.90
2018-08-22T10:24:11.620Z,60.80
2018-08-22T10:26:39.954Z,60.70
2018-08-22T10:29:08.299Z,60.60
2018-08-22T10:31:36.579Z,60.40
2018-08-22T10:34:04.891Z,60.40
2018-08-22T10:36:33.151Z,60.60
2018-08-22T10:39:01.488Z,60.60
2018-08-22T10:41:29.758Z,60.80
2018-08-22T10:43:58.048Z,60.60
2018-08-22T10:46:26.325Z,60.40
2018-08-22T10:48:54.612Z,60.70
2018-08-22T10:51:23.003Z,60.40
2018-08-22T10:53:51.324Z,60.10
2018-08-22T10:56:21.224Z,59.90
2018-08-22T10:58:49.485Z,59.40
2018-08-22T11:01:17.790Z,59.10
2018-08-22T11:03:46.125Z,59.10
2018-08-22T11:06:14.491Z,59.20
2018-08-22T11:08:42.746Z,59.20
2018-08-22T11:11:11.048Z,58.80
2018-08-22T11:13:39.432Z,58.90
2018-08-22T11:16:07.756Z,59.00
2018-08-22T11:18:36.058Z,59.00
2018-08-22T11:21:15.921Z,59.00
2018-08-22T11:23:55.827Z,59.20
2018-08-22T11:26:35.482Z,59.10
2018-08-22T11:29:15.056Z,59.00
2018-08-22T11:31:54.804Z,59.00
2018-08-22T11:34:34.684Z,59.00
2018-08-22T11:37:06.951Z,58.90
2018-08-22T11:39:35.367Z,58.70
2018-08-22T11:42:04.329Z,58.40
2018-08-22T11:44:32.598Z,58.50
2018-08-22T11:47:01.172Z,57.90
2018-08-22T11:49:30.195Z,58.10
2018-08-22T11:51:58.853Z,58.00
2018-08-22T11:54:27.459Z,58.10
2018-08-22T11:56:55.745Z,58.10
2018-08-22T11:59:24.035Z,58.20
2018-08-22T12:01:52.324Z,58.40
2018-08-22T12:04:21.135Z,58.50
2018-08-22T12:06:49.652Z,58.60
2018-08-22T12:09:17.947Z,58.60
2018-08-22T12:11:46.214Z,58.60
2018-08-22T12:14:14.507Z,58.70
2018-08-22T12:16:42.963Z,58.90
2018-08-22T12:19:11.636Z,58.30
2018-08-22T12:21:40.691Z,58.80
2018-08-22T12:24:09.001Z,58.90
2018-08-22T12:26:37.318Z,59.00
2018-08-22T12:29:05.646Z,59.10
2018-08-22T12:31:34.359Z,59.00
2018-08-22T12:34:02.656Z,59.10
2018-08-22T12:36:30.927Z,59.10
2018-08-22T12:38:59.204Z,59.00
2018-08-22T12:41:27.511Z,59.00
2018-08-22T12:43:56.122Z,59.00
2018-08-22T12:46:24.449Z,59.00
2018-08-22T12:48:52.927Z,59.00
2018-08-22T12:51:21.255Z,59.00
2018-08-22T12:53:49.558Z,59.20
2018-08-22T12:56:17.838Z,59.30
2018-08-22T12:58:46.182Z,59.40
2018-08-22T13:01:14.458Z,59.50
2018-08-22T13:03:42.748Z,59.40
2018-08-22T13:06:11.035Z,59.40
2018-08-22T13:08:39.325Z,59.30
2018-08-22T13:11:07.641Z,59.00
2018-08-22T13:13:35.923Z,58.80
2018-08-22T13:16:04.191Z,58.80
2018-08-22T13:18:32.527Z,58.50
2018-08-22T13:21:00.896Z,59.20
2018-08-22T13:23:29.170Z,58.10
2018-08-22T13:25:57.443Z,57.90
2018-08-22T13:28:25.802Z,58.60
2018-08-22T13:30:54.084Z,58.60
2018-08-22T13:33:22.490Z,58.10
2018-08-22T13:35:50.778Z,58.00
2018-08-22T13:38:19.097Z,58.50
2018-08-22T13:40:47.354Z,58.50
2018-08-22T13:43:15.623Z,58.60
2018-08-22T13:45:43.894Z,58.50
2018-08-22T13:48:12.302Z,58.70
2018-08-22T13:50:40.579Z,58.60
2018-08-22T13:53:08.962Z,58.70
2018-08-22T13:55:37.299Z,58.70
2018-08-22T13:58:05.569Z,58.70
2018-08-22T14:00:33.946Z,58.70
2018-08-22T14:03:02.243Z,58.80
2018-08-22T14:05:30.518Z,58.80
2018-08-22T14:07:58.840Z,58.80
2018-08-22T14:10:27.123Z,58.70
2018-08-22T14:12:55.484Z,58.60
2018-08-22T14:15:23.916Z,58.30
2018-08-22T14:17:52.205Z,58.50
2018-08-22T14:20:20.579Z,58.50
2018-08-22T14:22:48.884Z,58.50
2018-08-22T14:25:17.199Z,58.40
2018-08-22T14:27:45.501Z,58.10
2018-08-22T14:30:13.824Z,58.00
2018-08-22T14:32:42.206Z,58.00
2018-08-22T14:35:10.524Z,58.00
2018-08-22T14:37:38.831Z,57.90
2018-08-22T14:40:07.262Z,58.00
2018-08-22T14:42:35.599Z,57.90
2018-08-22T14:45:03.954Z,58.00
2018-08-22T14:47:32.209Z,57.90
2018-08-22T14:50:00.502Z,58.00
2018-08-22T14:52:28.775Z,58.00
2018-08-22T14:54:57.096Z,57.90
2018-08-22T14:57:25.437Z,57.80
2018-08-22T14:59:53.847Z,57.80
2018-08-22T15:02:22.259Z,57.80
2018-08-22T15:04:50.546Z,57.90
2018-08-22T15:07:18.832Z,57.30
2018-08-22T15:09:47.258Z,57.90
2018-08-22T15:12:15.563Z,57.60
2018-08-22T15:14:43.872Z,57.80
2018-08-22T15:17:12.200Z,57.80
2018-08-22T15:19:40.483Z,58.00
2018-08-22T15:22:09.279Z,58.20
2018-08-22T15:24:37.608Z,58.30
2018-08-22T15:27:05.907Z,58.50
2018-08-22T15:29:34.169Z,58.70
2018-08-22T15:32:02.414Z,58.70
2018-08-22T15:34:42.252Z,58.70
2018-08-22T15:37:10.515Z,58.80
2018-08-22T15:39:38.815Z,58.80
2018-08-22T15:42:07.138Z,59.10
2018-08-22T15:44:35.667Z,59.10
2018-08-22T15:47:04.267Z,59.10
2018-08-22T15:49:32.582Z,59.10
2018-08-22T15:52:00.901Z,59.10
2018-08-22T15:54:29.218Z,58.90
2018-08-22T15:56:57.502Z,58.90
2018-08-22T15:59:25.836Z,59.60
2018-08-22T16:01:54.123Z,58.90
2018-08-22T16:04:22.457Z,59.00
2018-08-22T16:06:56.141Z,59.00
2018-08-22T16:09:28.759Z,59.20
2018-08-22T16:11:57.108Z,59.20
2018-08-22T16:14:25.721Z,58.90
2018-08-22T16:16:54.211Z,59.30
2018-08-22T16:19:22.453Z,59.20
2018-08-22T16:21:50.728Z,59.10
2018-08-22T16:24:19.307Z,59.10
2018-08-22T16:26:47.539Z,59.80
2018-08-22T16:29:15.841Z,59.40
2018-08-22T16:31:45.621Z,60.10
2018-08-22T16:34:14.442Z,59.50
2018-08-22T16:36:42.744Z,59.50
2018-08-22T16:39:11.344Z,59.50
2018-08-22T16:41:39.887Z,59.60
2018-08-22T16:44:08.441Z,59.70
2018-08-22T16:46:36.927Z,59.50
2018-08-22T16:49:05.203Z,59.60
2018-08-22T16:51:33.522Z,59.60
2018-08-22T16:54:07.154Z,59.50
2018-08-22T16:56:35.799Z,59.60
2018-08-22T16:59:08.562Z,59.80
2018-08-22T17:01:37.943Z,60.90
2018-08-22T17:04:06.519Z,60.20
2018-08-22T17:06:35.094Z,60.00
2018-08-22T17:09:04.655Z,60.80
2018-08-22T17:11:32.920Z,59.90
2018-08-22T17:14:01.233Z,59.80
2018-08-22T17:16:29.505Z,59.90
2018-08-22T17:18:57.811Z,59.80
2018-08-22T17:21:26.136Z,59.80
2018-08-22T17:23:55.292Z,59.90
2018-08-22T17:26:23.970Z,60.00
2018-08-22T17:28:55.306Z,59.70
2018-08-22T17:31:24.627Z,59.70
2018-08-22T17:33:55.541Z,60.00
2018-08-22T17:36:23.947Z,59.70
2018-08-22T17:38:53.734Z,59.70
2018-08-22T17:41:24.413Z,59.60
2018-08-22T17:44:01.248Z,59.60
2018-08-22T17:46:30.918Z,59.60
2018-08-22T17:48:59.458Z,59.50
2018-08-22T17:51:27.903Z,59.60
2018-08-22T17:53:56.411Z,59.30
2018-08-22T17:56:26.043Z,59.40
2018-08-22T17:58:55.339Z,59.40
2018-08-22T18:01:24.079Z,59.50
2018-08-22T18:03:54.723Z,59.50
2018-08-22T18:06:23.140Z,60.10
2018-08-22T18:08:51.418Z,59.50
2018-08-22T18:11:19.815Z,59.60
2018-08-22T18:13:48.203Z,59.70
2018-08-22T18:16:16.459Z,59.70
2018-08-22T18:18:44.767Z,59.70
2018-08-22T18:21:13.051Z,59.90
2018-08-22T18:23:49.223Z,59.70
2018-08-22T18:26:17.519Z,59.80
2018-08-22T18:28:45.805Z,59.80
2018-08-22T18:31:14.324Z,59.90
2018-08-22T18:33:57.081Z,59.90
2018-08-22T18:36:26.695Z,60.00
2018-08-22T18:39:01.827Z,59.90
2018-08-22T18:41:30.163Z,59.90
2018-08-22T18:43:58.434Z,60.00
2018-08-22T18:46:26.729Z,60.00
2018-08-22T18:48:55.024Z,60.00
2018-08-22T18:51:23.311Z,60.10
2018-08-22T18:53:51.618Z,60.20
2018-08-22T18:56:21.561Z,60.10
2018-08-22T18:58:50.123Z,60.90
2018-08-22T19:01:18.746Z,60.10
2018-08-22T19:03:47.101Z,60.00
2018-08-22T19:06:15.370Z,59.10
2018-08-22T19:08:43.659Z,59.80
2018-08-22T19:11:12.073Z,60.00
2018-08-22T19:13:40.283Z,59.80
2018-08-22T19:16:09.789Z,59.80
2018-08-22T19:18:38.256Z,59.80
2018-08-22T19:21:08.140Z,59.80
2018-08-22T19:23:36.506Z,59.80
2018-08-22T19:26:05.906Z,59.80
2018-08-22T19:29:06.053Z,60.50
2018-08-22T19:31:35.180Z,59.80
2018-08-22T19:34:03.615Z,59.90
2018-08-22T19:36:31.912Z,59.90
2018-08-22T19:39:00.280Z,59.90
2018-08-22T19:41:32.838Z,60.10
2018-08-22T19:44:01.146Z,60.00
2018-08-22T19:46:29.464Z,60.10
2018-08-22T19:48:57.889Z,60.20
2018-08-22T19:51:26.203Z,60.10
2018-08-22T19:54:01.930Z,60.20
2018-08-22T19:56:30.711Z,60.30
2018-08-22T19:58:59.254Z,60.30
2018-08-22T20:01:30.233Z,60.20
2018-08-22T20:03:58.599Z,60.20
2018-08-22T20:06:27.279Z,60.10
2018-08-22T20:08:57.070Z,60.20
2018-08-22T20:11:25.680Z,60.20
2018-08-22T20:13:58.869Z,60.30
2018-08-22T20:16:27.158Z,60.40
2018-08-22T20:19:00.840Z,60.50
2018-08-22T20:21:36.227Z,60.50
2018-08-22T20:24:06.023Z,60.60
2018-08-22T20:26:34.781Z,60.70
2018-08-22T20:29:04.057Z,60.60
2018-08-22T20:31:33.285Z,60.70
2018-08-22T20:34:12.313Z,60.70
2018-08-22T20:36:41.805Z,60.80
2018-08-22T20:39:11.631Z,60.80
2018-08-22T20:41:40.706Z,61.00
2018-08-22T20:44:13.487Z,61.00
2018-08-22T20:46:43.701Z,61.10
2018-08-22T20:49:12.288Z,61.10
2018-08-22T20:51:40.610Z,61.10
2018-08-22T20:54:11.334Z,61.10
2018-08-22T20:56:47.960Z,60.80
2018-08-22T20:59:17.496Z,61.00
2018-08-22T21:01:48.162Z,61.00
2018-08-22T21:04:16.426Z,61.00
2018-08-22T21:06:44.768Z,61.10
2018-08-22T21:09:13.364Z,61.00
2018-08-22T21:11:42.716Z,61.00
2018-08-22T21:14:11.018Z,60.90
2018-08-22T21:16:39.296Z,61.60
2018-08-22T21:19:08.014Z,61.00
2018-08-22T21:21:36.319Z,61.00
2018-08-22T21:24:04.655Z,61.10
2018-08-22T21:26:44.146Z,61.30
2018-08-22T21:29:12.425Z,61.40
2018-08-22T21:31:40.689Z,61.20
2018-08-22T21:34:14.214Z,61.90
2018-08-22T21:36:44.260Z,61.10
2018-08-22T21:39:17.878Z,61.10
2018-08-22T21:41:46.884Z,61.10
2018-08-22T21:44:19.680Z,61.10
2018-08-22T21:46:58.290Z,61.20
2018-08-22T21:49:26.759Z,61.10
2018-08-22T21:51:59.125Z,61.10
2018-08-22T21:54:27.589Z,61.10
2018-08-22T21:56:55.872Z,61.10
2018-08-22T21:59:24.160Z,61.10
2018-08-22T22:01:57.992Z,61.10
2018-08-22T22:04:31.534Z,61.00
2018-08-22T22:06:59.863Z,60.90
2018-08-22T22:09:28.383Z,60.50
2018-08-22T22:11:58.276Z,59.70
2018-08-22T22:14:27.538Z,59.60
2018-08-22T22:16:57.448Z,59.80
2018-08-22T22:19:28.186Z,59.70
2018-08-22T22:21:56.550Z,59.80
2018-08-22T22:24:24.798Z,59.80
2018-08-22T22:26:53.091Z,59.70
2018-08-22T22:29:24.448Z,59.80
2018-08-22T22:31:52.735Z,59.90
2018-08-22T22:34:21.010Z,59.90
2018-08-22T22:36:49.290Z,60.70
2018-08-22T22:39:35.393Z,60.20
2018-08-22T22:42:12.822Z,60.00
2018-08-22T22:44:45.243Z,60.10
2018-08-22T22:47:18.861Z,60.40
2018-08-22T22:49:47.374Z,60.10
2018-08-22T22:52:34.339Z,60.20
2018-08-22T22:55:03.862Z,60.30
2018-08-22T22:57:33.347Z,60.50
2018-08-22T23:00:02.364Z,60.50
2018-08-22T23:02:31.248Z,60.80
2018-08-22T23:05:00.327Z,60.60
2018-08-22T23:07:30.873Z,60.30
2018-08-22T23:10:00.360Z,60.30
2018-08-22T23:12:33.942Z,60.20
2018-08-22T23:15:02.299Z,60.10
2018-08-22T23:17:30.598Z,60.00
2018-08-22T23:20:08.916Z,60.30
2018-08-22T23:22:38.023Z,60.00
2018-08-22T23:25:06.379Z,60.00
2018-08-22T23:27:34.783Z,59.90
2018-08-22T23:30:03.065Z,59.90
2018-08-22T23:32:31.403Z,60.00
2018-08-22T23:35:09.755Z,60.00
2018-08-22T23:37:38.051Z,60.10
2018-08-22T23:40:06.363Z,60.00
2018-08-22T23:42:34.638Z,60.00
2018-08-22T23:45:04.004Z,60.00
2018-08-22T23:47:32.271Z,60.00
2018-08-22T23:50:00.626Z,60.10
2018-08-22T23:52:34.216Z,60.10
2018-08-22T23:55:02.493Z,60.00
2018-08-22T23:57:30.798Z,60.10
2018-08-22T23:59:59.075Z,60.10
